createdAt,value
2018-09-04T00:00:52.358Z,25.22
2018-09-04T00:03:19.069Z,25.22
2018-09-04T00:05:45.844Z,25.24
2018-09-04T00:08:12.536Z,25.21
2018-09-04T00:10:39.224Z,25.20
2018-09-04T00:13:05.953Z,25.23
2018-09-04T00:15:32.624Z,25.24
2018-09-04T00:17:59.342Z,25.25
2018-09-04T00:20:28.983Z,25.23
2018-09-04T00:22:55.768Z,25.19
2018-09-04T00:25:25.587Z,25.17
2018-09-04T00:27:52.326Z,25.20
2018-09-04T00:30:19.003Z,25.20
2018-09-04T00:32:45.728Z,25.19
2018-09-04T00:35:12.446Z,25.18
2018-09-04T00:37:39.116Z,25.22
2018-09-04T00:40:05.943Z,25.23
2018-09-04T00:42:32.626Z,25.18
2018-09-04T00:44:59.352Z,25.12
2018-09-04T00:47:26.042Z,25.16
2018-09-04T00:49:54.370Z,25.18
2018-09-04T00:52:21.172Z,25.17
2018-09-04T00:54:47.901Z,25.19
2018-09-04T00:57:14.569Z,25.14
2018-09-04T00:59:42.676Z,25.13
2018-09-04T01:02:07.996Z,25.10
2018-09-04T01:04:34.706Z,25.11
2018-09-04T01:07:04.244Z,25.06
2018-09-04T01:09:31.927Z,25.10
2018-09-04T01:11:57.593Z,25.10
2018-09-04T01:14:24.264Z,25.09
2018-09-04T01:16:50.984Z,25.09
2018-09-04T01:19:19.240Z,25.11
2018-09-04T01:21:44.383Z,25.13
2018-09-04T01:24:11.066Z,25.13
2018-09-04T01:26:37.829Z,25.11
2018-09-04T01:29:04.504Z,25.08
2018-09-04T01:31:31.220Z,25.09
2018-09-04T01:33:57.945Z,25.08
2018-09-04T01:36:24.653Z,25.07
2018-09-04T01:38:51.409Z,25.06
2018-09-04T01:41:18.122Z,25.06
2018-09-04T01:43:44.856Z,25.03
2018-09-04T01:46:11.498Z,25.03
2018-09-04T01:48:38.228Z,25.06
2018-09-04T01:51:04.912Z,25.00
2018-09-04T01:53:31.592Z,24.96
2018-09-04T01:55:58.310Z,25.00
2018-09-04T01:58:24.980Z,24.99
2018-09-04T02:00:51.777Z,24.99
2018-09-04T02:03:18.462Z,25.05
2018-09-04T02:05:45.211Z,25.06
2018-09-04T02:08:11.894Z,25.06
2018-09-04T02:10:38.619Z,25.00
2018-09-04T02:13:05.348Z,25.00
2018-09-04T02:15:32.065Z,25.01
2018-09-04T02:17:58.739Z,24.96
2018-09-04T02:20:25.487Z,25.04
2018-09-04T02:22:52.252Z,25.00
2018-09-04T02:25:20.403Z,25.00
2018-09-04T02:27:45.637Z,24.97
2018-09-04T02:30:12.311Z,24.99
2018-09-04T02:32:39.113Z,24.99
2018-09-04T02:35:07.324Z,24.96
2018-09-04T02:37:32.527Z,24.97
2018-09-04T02:39:59.262Z,24.93
2018-09-04T02:42:25.978Z,24.95
2018-09-04T02:44:52.719Z,24.94
2018-09-04T02:47:19.402Z,24.94
2018-09-04T02:49:46.119Z,24.93
2018-09-04T02:52:12.964Z,24.93
2018-09-04T02:54:39.646Z,24.92
2018-09-04T02:57:06.460Z,24.95
2018-09-04T02:59:33.186Z,24.92
2018-09-04T03:01:59.830Z,24.88
2018-09-04T03:04:26.611Z,24.91
2018-09-04T03:06:53.341Z,24.87
2018-09-04T03:09:20.058Z,24.83
2018-09-04T03:11:46.737Z,24.83
2018-09-04T03:14:13.506Z,24.86
2018-09-04T03:16:40.225Z,24.87
2018-09-04T03:19:06.901Z,24.81
2018-09-04T03:21:33.626Z,24.83
2018-09-04T03:24:00.349Z,24.87
2018-09-04T03:26:27.157Z,24.89
2018-09-04T03:28:53.875Z,24.84
2018-09-04T03:31:22.632Z,24.81
2018-09-04T03:33:49.258Z,24.84
2018-09-04T03:36:16.014Z,24.83
2018-09-04T03:38:42.762Z,24.80
2018-09-04T03:41:09.446Z,24.81
2018-09-04T03:43:36.194Z,24.81
2018-09-04T03:46:02.878Z,24.77
2018-09-04T03:48:29.556Z,24.85
2018-09-04T03:50:56.332Z,24.78
2018-09-04T03:53:23.021Z,24.74
2018-09-04T03:55:49.727Z,24.76
2018-09-04T03:58:16.405Z,24.76
2018-09-04T04:00:43.100Z,24.77
2018-09-04T04:03:09.893Z,24.63
2018-09-04T04:05:36.661Z,24.68
2018-09-04T04:08:03.374Z,24.75
2018-09-04T04:10:30.113Z,24.66
2018-09-04T04:12:56.801Z,24.62
2018-09-04T04:15:23.552Z,24.53
2018-09-04T04:17:50.290Z,24.59
2018-09-04T04:20:16.971Z,24.66
2018-09-04T04:22:43.737Z,24.64
2018-09-04T04:25:10.422Z,24.71
2018-09-04T04:27:37.107Z,24.73
2018-09-04T04:30:03.799Z,24.72
2018-09-04T04:32:32.645Z,24.72
2018-09-04T04:34:57.193Z,24.70
2018-09-04T04:37:23.877Z,24.73
2018-09-04T04:39:53.276Z,24.72
2018-09-04T04:42:19.898Z,24.74
2018-09-04T04:44:46.599Z,24.74
2018-09-04T04:47:13.293Z,24.71
2018-09-04T04:49:39.998Z,24.76
2018-09-04T04:52:06.669Z,24.75
2018-09-04T04:54:33.359Z,24.74
2018-09-04T04:57:00.096Z,24.74
2018-09-04T04:59:29.842Z,24.75
2018-09-04T05:01:56.566Z,24.76
2018-09-04T05:04:24.279Z,24.76
2018-09-04T05:06:49.924Z,24.73
2018-09-04T05:09:16.597Z,24.76
2018-09-04T05:11:43.337Z,24.80
2018-09-04T05:14:09.994Z,24.79
2018-09-04T05:16:36.681Z,24.79
2018-09-04T05:19:06.242Z,24.77
2018-09-04T05:21:32.926Z,24.76
2018-09-04T05:24:02.908Z,24.75
2018-09-04T05:26:29.717Z,24.80
2018-09-04T05:28:56.405Z,24.90
2018-09-04T05:31:25.772Z,24.86
2018-09-04T05:33:52.451Z,24.81
2018-09-04T05:36:19.250Z,24.89
2018-09-04T05:38:45.935Z,24.87
2018-09-04T05:41:12.605Z,24.87
2018-09-04T05:43:39.440Z,24.79
2018-09-04T05:46:06.123Z,24.78
2018-09-04T05:48:32.802Z,24.78
2018-09-04T05:50:59.489Z,24.78
2018-09-04T05:53:26.165Z,24.90
2018-09-04T05:55:53.037Z,24.91
2018-09-04T05:58:19.834Z,25.03
2018-09-04T06:00:46.483Z,24.82
2018-09-04T06:03:13.212Z,24.80
2018-09-04T06:05:39.891Z,24.80
2018-09-04T06:08:06.578Z,24.81
2018-09-04T06:10:33.257Z,24.83
2018-09-04T06:12:59.940Z,24.81
2018-09-04T06:15:29.982Z,24.86
2018-09-04T06:17:56.765Z,24.91
2018-09-04T06:20:23.456Z,25.09
2018-09-04T06:22:53.125Z,24.97
2018-09-04T06:25:19.881Z,25.00
2018-09-04T06:27:46.587Z,24.95
2018-09-04T06:30:13.337Z,25.08
2018-09-04T06:32:40.057Z,25.13
2018-09-04T06:35:06.790Z,25.13
2018-09-04T06:37:33.660Z,25.15
2018-09-04T06:40:00.346Z,25.15
2018-09-04T06:42:27.038Z,25.17
2018-09-04T06:44:53.738Z,25.18
2018-09-04T06:47:20.548Z,25.30
2018-09-04T06:49:47.203Z,25.31
2018-09-04T06:52:13.894Z,25.27
2018-09-04T06:54:40.636Z,25.37
2018-09-04T06:57:09.510Z,25.49
2018-09-04T06:59:34.086Z,25.53
2018-09-04T07:02:00.776Z,25.54
2018-09-04T07:04:27.548Z,25.72
2018-09-04T07:06:54.234Z,25.71
2018-09-04T07:09:20.938Z,25.74
2018-09-04T07:11:47.664Z,25.76
2018-09-04T07:14:17.703Z,25.82
2018-09-04T07:16:44.565Z,25.88
2018-09-04T07:19:11.251Z,25.91
2018-09-04T07:21:37.970Z,25.84
2018-09-04T07:24:04.682Z,25.75
2018-09-04T07:26:31.422Z,25.79
2018-09-04T07:28:58.251Z,25.80
2018-09-04T07:31:25.547Z,25.77
2018-09-04T07:33:52.177Z,25.69
2018-09-04T07:36:18.943Z,25.80
2018-09-04T07:38:45.583Z,25.94
2018-09-04T07:41:12.334Z,25.95
2018-09-04T07:43:39.002Z,25.77
2018-09-04T07:46:07.398Z,25.63
2018-09-04T07:48:32.475Z,25.64
2018-09-04T07:50:59.213Z,25.63
2018-09-04T07:53:26.006Z,25.84
2018-09-04T07:55:52.656Z,25.96
2018-09-04T07:58:19.820Z,25.95
2018-09-04T08:00:46.575Z,25.88
2018-09-04T08:03:13.323Z,26.00
2018-09-04T08:05:40.037Z,26.14
2018-09-04T08:08:08.943Z,26.13
2018-09-04T08:10:35.697Z,26.00
2018-09-04T08:13:02.405Z,25.49
2018-09-04T08:15:31.944Z,25.47
2018-09-04T08:17:58.816Z,25.40
2018-09-04T08:20:25.518Z,25.39
2018-09-04T08:22:52.330Z,25.65
2018-09-04T08:25:18.915Z,25.81
2018-09-04T08:27:45.659Z,26.02
2018-09-04T08:30:12.426Z,26.05
2018-09-04T08:32:42.024Z,25.95
2018-09-04T08:35:08.741Z,26.09
2018-09-04T08:37:38.645Z,25.54
2018-09-04T08:40:14.918Z,25.31
2018-09-04T08:42:41.736Z,25.55
2018-09-04T08:45:08.436Z,25.72
2018-09-04T08:47:35.126Z,25.71
2018-09-04T08:50:01.949Z,25.82
2018-09-04T08:52:28.734Z,25.94
2018-09-04T08:54:56.707Z,26.01
2018-09-04T08:57:22.097Z,25.76
2018-09-04T08:59:48.777Z,25.43
2018-09-04T09:02:15.454Z,25.33
2018-09-04T09:04:44.601Z,25.49
2018-09-04T09:07:12.087Z,25.59
2018-09-04T09:09:38.827Z,25.58
2018-09-04T09:12:05.519Z,25.78
2018-09-04T09:14:32.248Z,25.90
2018-09-04T09:16:59.061Z,25.97
2018-09-04T09:19:27.032Z,26.10
2018-09-04T09:21:52.492Z,25.94
2018-09-04T09:24:19.177Z,25.62
2018-09-04T09:26:45.874Z,25.78
2018-09-04T09:29:12.563Z,25.91
2018-09-04T09:31:39.252Z,25.97
2018-09-04T09:34:06.056Z,25.93
2018-09-04T09:36:32.774Z,25.94
2018-09-04T09:39:00.822Z,26.00
2018-09-04T09:41:29.403Z,26.06
2018-09-04T09:43:56.163Z,25.52
2018-09-04T09:46:22.899Z,25.10
2018-09-04T09:48:49.637Z,25.30
2018-09-04T09:51:16.397Z,25.55
2018-09-04T09:53:43.345Z,25.81
2018-09-04T09:56:10.378Z,25.94
2018-09-04T09:58:37.101Z,25.87
2018-09-04T10:01:06.881Z,25.85
2018-09-04T10:03:33.626Z,26.07
2018-09-04T10:06:00.451Z,25.62
2018-09-04T10:08:27.208Z,25.19
2018-09-04T10:10:53.863Z,25.38
2018-09-04T10:13:20.549Z,25.62
2018-09-04T10:15:47.569Z,25.92
2018-09-04T10:18:14.641Z,25.96
2018-09-04T10:20:41.320Z,25.99
2018-09-04T10:23:08.039Z,25.68
2018-09-04T10:25:34.696Z,25.53
2018-09-04T10:28:01.541Z,25.14
2018-09-04T10:30:29.747Z,24.99
2018-09-04T10:32:54.781Z,25.43
2018-09-04T10:35:21.440Z,25.77
2018-09-04T10:37:48.927Z,25.84
2018-09-04T10:40:17.702Z,25.93
2018-09-04T10:42:44.397Z,25.97
2018-09-04T10:45:11.058Z,25.90
2018-09-04T10:47:37.761Z,25.96
2018-09-04T10:50:04.420Z,25.99
2018-09-04T10:52:31.063Z,25.49
2018-09-04T10:54:57.740Z,25.21
2018-09-04T10:57:24.377Z,24.84
2018-09-04T10:59:51.128Z,24.95
2018-09-04T11:02:17.836Z,24.92
2018-09-04T11:04:44.526Z,24.85
2018-09-04T11:07:11.186Z,24.97
2018-09-04T11:09:40.249Z,25.16
2018-09-04T11:12:09.450Z,24.92
2018-09-04T11:14:36.547Z,25.35
2018-09-04T11:17:03.361Z,25.62
2018-09-04T11:19:31.398Z,25.79
2018-09-04T11:21:56.727Z,25.86
2018-09-04T11:24:23.395Z,25.76
2018-09-04T11:26:50.133Z,25.65
2018-09-04T11:29:16.734Z,25.72
2018-09-04T11:31:43.410Z,25.67
2018-09-04T11:34:10.161Z,25.62
2018-09-04T11:36:36.991Z,25.86
2018-09-04T11:39:05.085Z,25.96
2018-09-04T11:41:30.614Z,26.03
2018-09-04T11:43:57.225Z,25.96
2018-09-04T11:46:23.955Z,25.98
2018-09-04T11:48:50.696Z,26.00
2018-09-04T11:51:17.429Z,25.62
2018-09-04T11:53:44.159Z,25.68
2018-09-04T11:56:10.847Z,25.55
2018-09-04T11:58:37.568Z,25.26
2018-09-04T12:01:04.335Z,25.12
2018-09-04T12:03:31.044Z,25.20
2018-09-04T12:05:57.770Z,25.27
2018-09-04T12:08:24.604Z,25.27
2018-09-04T12:10:53.467Z,24.91
2018-09-04T12:13:20.195Z,24.95
2018-09-04T12:15:46.885Z,25.02
2018-09-04T12:18:13.621Z,25.10
2018-09-04T12:20:40.405Z,25.07
2018-09-04T12:23:07.197Z,24.96
2018-09-04T12:25:33.942Z,24.93
2018-09-04T12:28:00.697Z,25.10
2018-09-04T12:30:27.362Z,24.85
2018-09-04T12:32:54.209Z,24.77
2018-09-04T12:35:20.985Z,24.04
2018-09-04T12:37:47.621Z,25.20
2018-09-04T12:40:14.355Z,25.02
2018-09-04T12:42:41.563Z,24.78
2018-09-04T12:45:11.649Z,24.78
2018-09-04T12:47:38.364Z,25.13
2018-09-04T12:50:05.216Z,25.04
2018-09-04T12:52:34.433Z,24.96
2018-09-04T12:55:01.103Z,25.11
2018-09-04T12:57:27.932Z,24.95
2018-09-04T12:59:54.733Z,25.10
2018-09-04T13:02:22.739Z,25.20
2018-09-04T13:04:48.032Z,25.21
2018-09-04T13:07:14.766Z,25.14
2018-09-04T13:09:41.521Z,25.22
2018-09-04T13:12:08.282Z,25.06
2018-09-04T13:14:35.034Z,25.09
2018-09-04T13:17:01.724Z,25.45
2018-09-04T13:19:28.451Z,25.74
2018-09-04T13:21:55.263Z,25.91
2018-09-04T13:24:21.894Z,25.72
2018-09-04T13:26:48.739Z,25.43
2018-09-04T13:29:15.454Z,25.22
2018-09-04T13:31:42.130Z,24.90
2018-09-04T13:34:08.903Z,25.11
2018-09-04T13:36:35.690Z,25.28
2018-09-04T13:39:08.945Z,25.06
2018-09-04T13:41:28.961Z,25.16
2018-09-04T13:43:55.643Z,25.26
2018-09-04T13:46:22.279Z,24.99
2018-09-04T13:48:49.017Z,24.83
2018-09-04T13:51:15.671Z,25.32
2018-09-04T13:53:42.320Z,25.60
2018-09-04T13:56:09.034Z,25.82
2018-09-04T13:58:35.677Z,25.47
2018-09-04T14:01:02.341Z,25.28
2018-09-04T14:03:29.064Z,25.04
2018-09-04T14:05:55.730Z,25.17
2018-09-04T14:08:22.426Z,25.62
2018-09-04T14:10:49.083Z,25.94
2018-09-04T14:13:17.064Z,25.88
2018-09-04T14:15:43.683Z,25.73
2018-09-04T14:18:09.033Z,25.80
2018-09-04T14:20:35.688Z,25.63
2018-09-04T14:23:02.358Z,25.67
2018-09-04T14:25:29.069Z,25.86
2018-09-04T14:27:55.944Z,25.88
2018-09-04T14:30:22.644Z,25.97
2018-09-04T14:32:49.310Z,25.91
2018-09-04T14:35:15.974Z,25.56
2018-09-04T14:37:44.108Z,25.53
2018-09-04T14:40:09.542Z,25.17
2018-09-04T14:42:36.160Z,25.11
2018-09-04T14:45:02.850Z,25.04
2018-09-04T14:47:29.467Z,25.11
2018-09-04T14:49:56.229Z,25.30
2018-09-04T14:52:22.964Z,24.96
2018-09-04T14:54:51.507Z,24.80
2018-09-04T14:57:16.231Z,24.75
2018-09-04T14:59:42.886Z,24.89
2018-09-04T15:02:09.604Z,25.09
2018-09-04T15:04:36.317Z,25.24
2018-09-04T15:07:03.036Z,25.39
2018-09-04T15:09:29.622Z,25.59
2018-09-04T15:11:56.356Z,25.63
2018-09-04T15:14:23.075Z,25.59
2018-09-04T15:16:49.714Z,25.78
2018-09-04T15:19:18.204Z,25.74
2018-09-04T15:21:43.087Z,25.80
2018-09-04T15:24:09.738Z,25.89
2018-09-04T15:26:36.377Z,25.90
2018-09-04T15:29:03.033Z,25.68
2018-09-04T15:31:29.738Z,25.58
2018-09-04T15:33:56.509Z,25.72
2018-09-04T15:36:23.155Z,25.77
2018-09-04T15:38:49.808Z,25.91
2018-09-04T15:41:16.467Z,26.00
2018-09-04T15:43:43.149Z,26.04
2018-09-04T15:46:09.850Z,25.98
2018-09-04T15:48:36.524Z,26.05
2018-09-04T15:51:03.201Z,26.18
2018-09-04T15:53:31.192Z,25.79
2018-09-04T15:55:57.835Z,25.44
2018-09-04T15:58:23.141Z,25.38
2018-09-04T16:00:49.802Z,25.46
2018-09-04T16:03:16.474Z,25.56
2018-09-04T16:05:43.179Z,25.78
2018-09-04T16:08:09.833Z,25.90
2018-09-04T16:10:36.499Z,25.97
2018-09-04T16:13:03.171Z,26.02
2018-09-04T16:15:30.304Z,26.08
2018-09-04T16:17:58.339Z,26.18
2018-09-04T16:20:23.582Z,25.85
2018-09-04T16:22:50.320Z,25.65
2018-09-04T16:25:17.037Z,25.72
2018-09-04T16:27:43.684Z,25.79
2018-09-04T16:30:10.328Z,25.80
2018-09-04T16:32:37.317Z,25.91
2018-09-04T16:35:03.789Z,26.01
2018-09-04T16:37:30.486Z,26.09
2018-09-04T16:39:57.197Z,26.18
2018-09-04T16:42:23.867Z,26.20
2018-09-04T16:44:50.574Z,26.20
2018-09-04T16:47:18.972Z,26.29
2018-09-04T16:49:43.972Z,26.20
2018-09-04T16:52:10.620Z,26.22
2018-09-04T16:54:37.264Z,26.25
2018-09-04T16:57:03.903Z,26.23
2018-09-04T16:59:30.558Z,26.20
2018-09-04T17:01:57.193Z,26.24
2018-09-04T17:04:23.912Z,26.23
2018-09-04T17:06:50.556Z,26.17
2018-09-04T17:09:17.200Z,26.18
2018-09-04T17:11:43.865Z,26.29
2018-09-04T17:14:10.543Z,26.26
2018-09-04T17:16:37.192Z,26.27
2018-09-04T17:19:03.831Z,26.22
2018-09-04T17:21:30.484Z,26.30
2018-09-04T17:23:57.122Z,26.25
2018-09-04T17:26:25.996Z,26.23
2018-09-04T17:28:50.535Z,26.21
2018-09-04T17:31:17.136Z,26.17
2018-09-04T17:33:43.778Z,26.16
2018-09-04T17:36:10.440Z,26.17
2018-09-04T17:38:40.035Z,26.11
2018-09-04T17:41:06.687Z,26.09
2018-09-04T17:43:33.322Z,26.12
2018-09-04T17:45:59.967Z,26.12
2018-09-04T17:48:26.602Z,26.11
2018-09-04T17:50:53.313Z,26.11
2018-09-04T17:53:19.917Z,26.11
2018-09-04T17:55:46.566Z,26.04
2018-09-04T17:58:13.212Z,26.11
2018-09-04T18:00:39.898Z,26.08
2018-09-04T18:03:06.608Z,26.01
2018-09-04T18:05:33.338Z,26.04
2018-09-04T18:07:59.976Z,26.04
2018-09-04T18:10:26.705Z,26.03
2018-09-04T18:12:54.437Z,26.05
2018-09-04T18:15:20.095Z,26.00
2018-09-04T18:17:46.727Z,26.08
2018-09-04T18:20:13.375Z,25.97
2018-09-04T18:22:40.025Z,25.99
2018-09-04T18:25:06.688Z,26.04
2018-09-04T18:27:33.414Z,25.93
2018-09-04T18:30:00.057Z,25.94
2018-09-04T18:32:26.693Z,25.91
2018-09-04T18:34:53.408Z,25.93
2018-09-04T18:37:20.046Z,25.92
2018-09-04T18:39:46.698Z,25.92
2018-09-04T18:42:16.546Z,25.93
2018-09-04T18:44:44.695Z,25.96
2018-09-04T18:47:09.894Z,25.96
2018-09-04T18:49:36.627Z,25.92
2018-09-04T18:52:03.261Z,25.97
2018-09-04T18:54:31.262Z,25.86
2018-09-04T18:56:56.570Z,25.86
2018-09-04T18:59:23.190Z,25.87
2018-09-04T19:01:49.884Z,25.89
2018-09-04T19:04:16.559Z,25.84
2018-09-04T19:06:43.255Z,25.88
2018-09-04T19:09:09.809Z,25.90
2018-09-04T19:11:36.463Z,25.88
2018-09-04T19:14:03.162Z,25.79
2018-09-04T19:16:29.761Z,25.85
2018-09-04T19:18:56.402Z,25.89
2018-09-04T19:21:26.252Z,25.80
2018-09-04T19:23:52.942Z,25.82
2018-09-04T19:26:19.575Z,25.84
2018-09-04T19:28:46.219Z,25.79
2018-09-04T19:31:12.859Z,25.82
2018-09-04T19:33:39.531Z,25.84
2018-09-04T19:36:06.245Z,25.81
2018-09-04T19:38:32.902Z,25.75
2018-09-04T19:40:59.542Z,25.77
2018-09-04T19:43:26.177Z,25.74
2018-09-04T19:45:52.915Z,25.75
2018-09-04T19:48:19.622Z,25.76
2018-09-04T19:50:46.350Z,25.73
2018-09-04T19:53:12.953Z,25.73
2018-09-04T19:55:39.591Z,25.74
2018-09-04T19:58:06.236Z,25.67
2018-09-04T20:00:32.923Z,25.67
2018-09-04T20:02:59.560Z,25.72
2018-09-04T20:05:26.212Z,25.72
2018-09-04T20:07:52.984Z,25.70
2018-09-04T20:10:19.639Z,25.73
2018-09-04T20:12:46.290Z,25.68
2018-09-04T20:15:12.956Z,25.65
2018-09-04T20:17:39.645Z,25.71
2018-09-04T20:20:06.387Z,25.70
2018-09-04T20:22:33.038Z,25.64
2018-09-04T20:24:59.777Z,25.60
2018-09-04T20:27:26.494Z,25.60
2018-09-04T20:29:53.141Z,25.65
2018-09-04T20:32:19.778Z,25.67
2018-09-04T20:34:46.769Z,25.63
2018-09-04T20:37:13.439Z,25.67
2018-09-04T20:39:40.126Z,25.65
2018-09-04T20:42:06.820Z,25.68
2018-09-04T20:44:33.537Z,25.59
2018-09-04T20:47:00.195Z,25.63
2018-09-04T20:49:26.903Z,25.56
2018-09-04T20:51:53.560Z,25.64
2018-09-04T20:54:20.266Z,25.60
2018-09-04T20:56:46.887Z,25.58
2018-09-04T20:59:15.015Z,25.60
2018-09-04T21:01:40.287Z,25.56
2018-09-04T21:04:06.970Z,25.64
2018-09-04T21:06:33.712Z,25.52
2018-09-04T21:09:01.837Z,25.59
2018-09-04T21:11:27.312Z,25.56
2018-09-04T21:13:53.985Z,25.51
2018-09-04T21:16:20.701Z,25.53
2018-09-04T21:18:47.388Z,25.58
2018-09-04T21:21:14.198Z,25.54
2018-09-04T21:23:40.883Z,25.52
2018-09-04T21:26:10.774Z,25.54
2018-09-04T21:28:37.625Z,25.54
2018-09-04T21:31:04.365Z,25.54
2018-09-04T21:33:31.095Z,25.47
2018-09-04T21:35:57.862Z,25.50
2018-09-04T21:38:24.613Z,25.49
2018-09-04T21:40:51.365Z,25.45
2018-09-04T21:43:19.083Z,25.47
2018-09-04T21:45:44.759Z,25.44
2018-09-04T21:48:11.429Z,25.47
2018-09-04T21:50:38.143Z,25.45
2018-09-04T21:53:04.832Z,25.45
2018-09-04T21:55:31.599Z,25.39
2018-09-04T21:57:58.401Z,25.37
2018-09-04T22:00:25.079Z,25.39
2018-09-04T22:02:51.869Z,25.42
2018-09-04T22:05:18.562Z,25.43
2018-09-04T22:07:45.234Z,25.39
2018-09-04T22:10:11.913Z,25.41
2018-09-04T22:12:38.670Z,25.42
2018-09-04T22:15:05.322Z,25.33
2018-09-04T22:17:32.057Z,25.33
2018-09-04T22:20:00.513Z,25.32
2018-09-04T22:22:28.453Z,25.33
2018-09-04T22:24:55.140Z,25.34
2018-09-04T22:27:21.947Z,25.34
2018-09-04T22:29:48.631Z,25.36
2018-09-04T22:32:15.277Z,25.30
2018-09-04T22:34:42.120Z,25.32
2018-09-04T22:37:08.766Z,25.35
2018-09-04T22:39:35.483Z,25.34
2018-09-04T22:42:02.156Z,25.29
2018-09-04T22:44:28.839Z,25.30
2018-09-04T22:46:55.658Z,25.30
2018-09-04T22:49:22.325Z,25.28
2018-09-04T22:51:50.684Z,25.26
2018-09-04T22:54:15.676Z,25.26
2018-09-04T22:56:42.390Z,25.24
2018-09-04T22:59:11.699Z,25.24
2018-09-04T23:01:38.378Z,25.30
2018-09-04T23:04:05.055Z,25.31
2018-09-04T23:06:31.753Z,25.29
2018-09-04T23:08:58.509Z,25.27
2018-09-04T23:11:25.193Z,25.21
2018-09-04T23:13:51.866Z,25.26
2018-09-04T23:16:18.552Z,25.26
2018-09-04T23:18:45.239Z,25.26
2018-09-04T23:21:12.066Z,25.24
2018-09-04T23:23:38.742Z,25.19
2018-09-04T23:26:05.478Z,25.20
2018-09-04T23:28:34.369Z,25.16
2018-09-04T23:31:02.393Z,25.23
2018-09-04T23:33:29.112Z,25.19
2018-09-04T23:35:55.986Z,25.22
2018-09-04T23:38:22.695Z,25.23
2018-09-04T23:40:49.331Z,25.22
2018-09-04T23:43:16.036Z,25.20
2018-09-04T23:45:42.729Z,25.17
2018-09-04T23:48:09.559Z,25.22
2018-09-04T23:50:36.200Z,25.17
2018-09-04T23:53:03.035Z,25.17
2018-09-04T23:55:29.691Z,25.19
2018-09-04T23:57:56.481Z,25.17
